Time;durP1;ratioP1;P1;durP2;ratioP2;P2;SDS_P1;SDS_P2;PMS_P1;PMS_P2;Temp;Humidity;BMP_temperature;BMP_pressure;BME280_temperature;BME280_humidity;BME280_pressure;Samples;Min_cycle;Max_cycle;Signal;HPM_P1;HPM_P2
2021/10/14 00:02:18;;;;;;;3.25;2.10;;;;;;;0.64;100.00;96143.72;5071650;28;20024;-59
2021/10/14 00:04:43;;;;;;;3.22;2.30;;;;;;;-144.43;100.00;64487.81;5050679;28;20023;-60
2021/10/14 00:07:09;;;;;;;3.10;2.35;;;;;;;-144.43;100.00;64487.81;5070019;28;20553;-57
2021/10/14 00:09:34;;;;;;;4.25;2.35;;;;;;;-144.43;100.00;64487.81;5071715;28;20104;-60
2021/10/14 00:11:59;;;;;;;5.28;2.67;;;;;;;-144.43;100.00;64487.81;5053689;28;20028;-59
2021/10/14 00:14:27;;;;;;;3.53;2.30;;;;;;;-144.43;100.00;64487.81;5071633;28;20028;-60
2021/10/14 00:16:59;;;;;;;3.42;2.28;;;;;;;-144.43;100.00;64487.81;5053762;28;20029;-60
2021/10/14 00:19:33;;;;;;;3.70;2.58;;;;;;;-144.43;100.00;64487.81;5074179;28;20125;-59
2021/10/14 00:21:59;;;;;;;5.10;2.50;;;;;;;-144.43;100.00;64487.81;5053955;28;20052;-57
2021/10/14 00:24:26;;;;;;;3.63;2.30;;;;;;;-144.43;100.00;64487.81;5051040;28;20024;-58
2021/10/14 00:26:52;;;;;;;4.63;2.70;;;;;;;-144.43;100.00;64487.81;5075174;28;20020;-59
2021/10/14 00:29:17;;;;;;;3.60;2.40;;;;;;;-144.43;100.00;64487.81;5054297;28;20025;-59
2021/10/14 00:31:49;;;;;;;3.22;2.63;;;;;;;-144.43;100.00;64487.81;5053840;28;20037;-58
2021/10/14 00:34:16;;;;;;;3.92;2.45;;;;;;;-144.43;100.00;64487.81;5051823;28;20075;-61
2021/10/14 00:36:49;;;;;;;3.85;2.60;;;;;;;-144.43;100.00;64487.81;5053840;28;20095;-60
2021/10/14 00:39:17;;;;;;;9.70;2.85;;;;;;;-144.43;100.00;64487.81;5070785;28;20028;-59
2021/10/14 00:41:43;;;;;;;4.15;3.03;;;;;;;-144.43;100.00;64487.81;5074946;28;20062;-56
2021/10/14 00:44:17;;;;;;;3.70;2.90;;;;;;;-144.43;100.00;64487.81;5074943;28;20055;-60
2021/10/14 00:46:53;;;;;;;3.67;2.92;;;;;;;-144.43;100.00;64487.81;5043068;28;20056;-58
2021/10/14 00:49:19;;;;;;;3.13;2.20;;;;;;;-144.43;100.00;64487.81;5040528;28;20103;-57
2021/10/14 00:51:47;;;;;;;4.00;2.70;;;;;;;-144.43;100.00;64487.81;5074451;28;20119;-60
2021/10/14 00:54:15;;;;;;;3.65;2.50;;;;;;;-144.43;100.00;64487.81;5074776;28;20036;-59
2021/10/14 00:56:44;;;;;;;4.20;2.70;;;;;;;-144.43;100.00;64487.81;5053582;28;20024;-55
2021/10/14 00:59:10;;;;;;;5.78;3.13;;;;;;;-144.43;100.00;64487.81;5074324;28;20028;-56
2021/10/14 01:01:36;;;;;;;3.70;2.78;;;;;;;-144.43;100.00;64487.81;5053445;28;20383;-58
2021/10/14 01:04:05;;;;;;;4.25;3.03;;;;;;;-144.43;100.00;64487.81;5043302;28;20111;-56
2021/10/14 01:06:33;;;;;;;4.85;2.97;;;;;;;-144.43;100.00;64487.81;5039908;28;20024;-54
2021/10/14 01:08:59;;;;;;;4.53;3.13;;;;;;;-144.43;100.00;64487.81;5056582;28;20032;-57
2021/10/14 01:11:25;;;;;;;4.32;2.85;;;;;;;-144.43;100.00;64487.81;5056502;28;20025;-60
2021/10/14 01:13:50;;;;;;;5.07;2.90;;;;;;;-144.43;100.00;64487.81;5056596;28;20021;-59
2021/10/14 01:16:15;;;;;;;3.85;2.92;;;;;;;-144.43;100.00;64487.81;5053282;28;20476;-59
2021/10/14 01:18:41;;;;;;;5.05;3.30;;;;;;;-144.43;100.00;64487.81;5074103;28;20471;-60
2021/10/14 01:21:12;;;;;;;5.28;3.28;;;;;;;-144.43;100.00;64487.81;5073846;28;20052;-60
2021/10/14 01:23:41;;;;;;;10.07;3.67;;;;;;;-144.43;100.00;64487.81;5056829;28;20373;-59
2021/10/14 01:26:08;;;;;;;4.63;3.40;;;;;;;-144.43;100.00;64487.81;5056362;28;20036;-59
2021/10/14 01:28:34;;;;;;;5.57;3.05;;;;;;;-144.43;100.00;64487.81;5074002;28;20031;-56
2021/10/14 01:31:02;;;;;;;4.55;3.40;;;;;;;-144.43;100.00;64487.81;5072662;28;20115;-61
2021/10/14 01:33:31;;;;;;;5.50;3.40;;;;;;;-144.43;100.00;64487.81;5074002;28;20024;-60
2021/10/14 01:35:57;;;;;;;5.60;3.58;;;;;;;-144.43;100.00;64487.81;5053742;28;20033;-60
2021/10/14 01:38:25;;;;;;;4.32;3.40;;;;;;;-144.43;100.00;64487.81;5073971;28;20678;-56
2021/10/14 01:40:50;;;;;;;4.63;3.50;;;;;;;-144.43;100.00;64487.81;5073939;28;20055;-55
2021/10/14 01:43:15;;;;;;;5.78;3.67;;;;;;;-144.43;100.00;64487.81;5052476;28;20114;-56
2021/10/14 01:45:54;;;;;;;4.85;3.63;;;;;;;-144.43;100.00;64487.81;5042499;28;20159;-54
2021/10/14 01:48:19;;;;;;;7.03;3.78;;;;;;;-144.43;100.00;64487.81;5053996;28;20104;-60
2021/10/14 01:51:02;;;;;;;4.97;3.60;;;;;;;-144.43;100.00;64487.81;5020990;28;20508;-56
2021/10/14 01:53:34;;;;;;;7.43;4.15;;;;;;;-144.43;100.00;64487.81;5068329;28;20025;-52
2021/10/14 01:56:03;;;;;;;5.07;3.80;;;;;;;-144.43;100.00;64487.81;5072385;28;20604;-55
2021/10/14 01:58:28;;;;;;;5.35;4.05;;;;;;;-144.43;100.00;64487.81;5072070;28;20036;-56
2021/10/14 02:00:56;;;;;;;5.50;3.70;;;;;;;-144.43;100.00;64487.81;5072594;28;20036;-54
2021/10/14 02:03:22;;;;;;;7.18;4.10;;;;;;;-144.43;100.00;64487.81;5052711;28;20430;-53
2021/10/14 02:05:54;;;;;;;5.65;3.97;;;;;;;-144.43;100.00;64487.81;5051216;28;20025;-53
2021/10/14 02:08:22;;;;;;;9.93;4.43;;;;;;;-144.43;100.00;64487.81;5067112;28;20024;-54
2021/10/14 02:10:54;;;;;;;7.70;4.57;;;;;;;-144.43;100.00;64487.81;5072464;28;20029;-58
2021/10/14 02:13:28;;;;;;;5.30;3.95;;;;;;;-144.43;100.00;64487.81;5072379;28;20032;-55
2021/10/14 02:15:54;;;;;;;8.40;4.30;;;;;;;-144.43;100.00;64487.81;5072494;28;20028;-57
2021/10/14 02:18:19;;;;;;;10.13;4.53;;;;;;;-144.43;100.00;64487.81;5067483;28;20384;-58
2021/10/14 02:20:44;;;;;;;6.25;4.13;;;;;;;-144.43;100.00;64487.81;5062189;28;20020;-59
2021/10/14 02:23:12;;;;;;;6.75;4.03;;;;;;;-144.43;100.00;64487.81;5052178;28;20032;-59
2021/10/14 02:25:40;;;;;;;7.80;3.70;;;;;;;-144.43;100.00;64487.81;5052233;28;20123;-60
2021/10/14 02:28:05;;;;;;;5.53;3.75;;;;;;;-144.43;100.00;64487.81;5031119;28;20034;-57
2021/10/14 02:30:32;;;;;;;6.28;4.20;;;;;;;-144.43;100.00;64487.81;5024455;28;20054;-57
2021/10/14 02:32:58;;;;;;;5.40;3.40;;;;;;;-144.43;100.00;64487.81;5052470;28;20174;-59
2021/10/14 02:35:32;;;;;;;7.50;3.42;;;;;;;-144.43;100.00;64487.81;5052277;28;20112;-58
2021/10/14 02:37:57;;;;;;;5.05;3.83;;;;;;;-0.09;100.00;96046.78;5052036;28;20035;-60
2021/10/14 02:40:26;;;;;;;6.07;3.90;;;;;;;-0.15;100.00;96064.09;5033626;28;20471;-57
2021/10/14 02:42:51;;;;;;;7.40;3.97;;;;;;;-0.20;100.00;96079.59;5034362;28;20094;-58
2021/10/14 02:45:29;;;;;;;5.68;3.15;;;;;;;-0.19;100.00;96083.88;5052183;28;20061;-53
2021/10/14 02:47:54;;;;;;;5.20;3.97;;;;;;;-0.18;100.00;96087.31;5051874;28;20408;-57
2021/10/14 02:50:29;;;;;;;5.95;3.95;;;;;;;-0.16;100.00;96104.59;5039100;28;20021;-52
2021/10/14 02:52:59;;;;;;;5.80;4.05;;;;;;;-0.03;100.00;96093.47;5038541;28;20098;-52
2021/10/14 02:55:25;;;;;;;6.22;4.32;;;;;;;0.17;100.00;96101.75;5031342;28;20029;-52
2021/10/14 02:57:56;;;;;;;5.30;4.07;;;;;;;0.43;100.00;96091.66;5051709;28;20025;-53
2021/10/14 03:00:28;;;;;;;7.75;4.35;;;;;;;0.71;100.00;96081.38;5031543;28;20586;-51
2021/10/14 03:02:56;;;;;;;8.43;4.28;;;;;;;0.90;100.00;96080.06;5033583;28;20017;-51
2021/10/14 03:05:25;;;;;;;7.20;4.72;;;;;;;1.02;100.00;96078.59;5051510;28;20116;-52
2021/10/14 03:07:53;;;;;;;6.57;4.93;;;;;;;1.06;100.00;96079.88;5051672;28;20104;-55
2021/10/14 03:10:18;;;;;;;6.75;4.65;;;;;;;1.09;100.00;96076.91;5033240;28;20032;-55
2021/10/14 03:12:51;;;;;;;7.63;5.05;;;;;;;1.15;100.00;96072.69;5051525;28;20025;-55
2021/10/14 03:15:20;;;;;;;;;;;;;;;1.13;100.00;96078.16;5051969;28;20024;-50
2021/10/14 03:17:51;;;;;;;8.98;4.97;;;;;;;1.10;100.00;96072.44;5051370;28;20269;-53
2021/10/14 03:20:17;;;;;;;7.55;4.78;;;;;;;1.02;100.00;96075.97;5050909;28;20029;-56
2021/10/14 03:22:42;;;;;;;7.10;4.20;;;;;;;0.91;100.00;96079.06;5051222;28;20044;-57
2021/10/14 03:25:11;;;;;;;10.15;3.92;;;;;;;0.76;100.00;96076.41;5050042;28;20025;-59
2021/10/14 03:27:36;;;;;;;7.72;4.68;;;;;;;0.56;100.00;96083.19;5051465;28;20024;-57
2021/10/14 03:30:05;;;;;;;6.57;4.45;;;;;;;0.37;100.00;96078.38;5029843;28;20028;-57
2021/10/14 03:32:30;;;;;;;5.97;4.03;;;;;;;0.18;100.00;96077.88;5026096;28;20653;-58
2021/10/14 03:34:56;;;;;;;5.32;3.85;;;;;;;0.04;100.00;96085.72;5050103;28;20016;-54
2021/10/14 03:37:21;;;;;;;6.80;4.05;;;;;;;-0.11;100.00;96086.47;5051367;28;20049;-58
2021/10/14 03:39:46;;;;;;;5.90;3.97;;;;;;;-0.20;100.00;96079.59;5049609;28;20107;-56
2021/10/14 03:42:13;;;;;;;5.15;3.97;;;;;;;-0.28;100.00;96084.91;5051255;28;20056;-58
2021/10/14 03:44:39;;;;;;;6.32;4.00;;;;;;;-0.33;100.00;96095.97;5033233;28;20021;-57
2021/10/14 03:47:05;;;;;;;7.90;4.90;;;;;;;-0.32;100.00;96094.97;5049988;28;20029;-56
2021/10/14 03:49:30;;;;;;;6.28;4.50;;;;;;;-0.26;100.00;96105.78;5050849;28;20029;-59
2021/10/14 03:51:55;;;;;;;8.10;4.50;;;;;;;-0.27;100.00;96104.16;5033072;28;20021;-58
2021/10/14 03:54:21;;;;;;;8.38;4.80;;;;;;;-0.26;100.00;96103.16;5053684;28;20578;-58
2021/10/14 03:56:46;;;;;;;8.70;4.45;;;;;;;-0.28;100.00;96108.59;5055104;28;20383;-52
2021/10/14 03:59:11;;;;;;;6.00;4.03;;;;;;;-0.32;100.00;96097.59;5037384;28;20313;-59
2021/10/14 04:01:36;;;;;;;6.10;4.10;;;;;;;-0.38;100.00;96089.56;5054772;28;20480;-57
2021/10/14 04:04:05;;;;;;;6.63;4.65;;;;;;;-0.47;100.00;96086.16;5055155;28;20476;-56
2021/10/14 04:06:33;;;;;;;6.75;4.47;;;;;;;-0.56;100.00;96092.44;5055165;28;20484;-60
2021/10/14 04:09:02;;;;;;;6.25;4.20;;;;;;;-0.66;100.00;96103.16;5036858;28;20029;-60
2021/10/14 04:11:27;;;;;;;6.35;4.60;;;;;;;-0.76;100.00;96112.25;5020562;28;20436;-59
2021/10/14 04:13:56;;;;;;;6.63;3.80;;;;;;;-0.81;100.00;96119.84;5020529;28;20075;-61
2021/10/14 04:16:30;;;;;;;10.63;4.15;;;;;;;-0.90;100.00;96121.66;5054610;28;20539;-61
2021/10/14 04:18:55;;;;;;;7.85;4.38;;;;;;;-0.93;100.00;96135.97;5054272;28;20029;-60
2021/10/14 04:21:30;;;;;;;5.85;4.10;;;;;;;-0.80;100.00;96129.34;5054286;28;20454;-60
2021/10/14 04:23:56;;;;;;;6.00;4.32;;;;;;;-0.78;100.00;96124.75;5054650;28;20108;-60
2021/10/14 04:26:25;;;;;;;4.75;3.80;;;;;;;-0.74;100.00;96126.06;5054365;28;20083;-60
2021/10/14 04:28:53;;;;;;;7.82;4.07;;;;;;;-0.66;100.00;96121.56;5036290;28;20051;-60
2021/10/14 04:31:18;;;;;;;6.28;4.07;;;;;;;-0.63;100.00;96116.00;5052928;28;20385;-60
2021/10/14 04:33:47;;;;;;;6.18;4.07;;;;;;;-0.67;100.00;96122.56;5054604;28;20029;-57
2021/10/14 04:36:12;;;;;;;5.05;3.78;;;;;;;-0.71;100.00;96123.09;5054030;28;20162;-60
2021/10/14 04:38:37;;;;;;;6.15;4.05;;;;;;;-0.73;100.00;96125.91;5036228;28;20112;-59
2021/10/14 04:41:05;;;;;;;7.28;4.28;;;;;;;-0.65;100.00;96127.69;5054128;28;20451;-61
2021/10/14 04:43:30;;;;;;;5.32;3.90;;;;;;;-0.67;100.00;96122.56;5054511;28;20029;-61
2021/10/14 04:45:56;;;;;;;4.90;3.45;;;;;;;-0.71;100.00;96121.28;5054123;28;20100;-61
2021/10/14 04:48:24;;;;;;;7.43;3.58;;;;;;;-0.75;100.00;96125.25;5053789;28;20057;-58
2021/10/14 04:51:06;;;;;;;6.03;3.45;;;;;;;-0.74;100.00;96121.63;5047668;28;20492;-60
2021/10/14 04:53:34;;;;;;;6.03;3.72;;;;;;;-0.73;100.00;96120.63;5049552;28;20029;-61
2021/10/14 04:56:01;;;;;;;6.32;3.65;;;;;;;-0.73;100.00;96114.56;5036391;28;20029;-58
2021/10/14 04:58:26;;;;;;;6.45;3.70;;;;;;;-0.76;100.00;96113.09;5053538;28;20506;-57
2021/10/14 05:00:52;;;;;;;6.03;4.07;;;;;;;-0.82;100.00;96113.75;5036041;28;20037;-60
2021/10/14 05:03:20;;;;;;;5.93;3.75;;;;;;;-0.85;100.00;96121.16;5053910;28;20036;-59
2021/10/14 05:05:46;;;;;;;8.48;3.85;;;;;;;-0.91;100.00;96120.84;5035713;28;20586;-59
2021/10/14 05:08:16;;;;;;;5.85;4.13;;;;;;;-0.91;100.00;96120.03;5053248;28;20108;-59
2021/10/14 05:10:42;;;;;;;6.03;4.38;;;;;;;-0.99;100.00;96130.53;5053822;28;20035;-59
2021/10/14 05:13:08;;;;;;;7.38;3.97;;;;;;;-1.09;100.00;96135.97;5035756;28;20391;-58
2021/10/14 05:15:38;;;;;;;5.63;4.40;;;;;;;-0.99;100.00;96133.19;5035883;28;20113;-61
2021/10/14 05:18:04;;;;;;;8.57;4.53;;;;;;;-0.82;100.00;96132.16;5035416;28;20032;-57
2021/10/14 05:20:29;;;;;;;8.25;4.80;;;;;;;-0.79;100.00;96131.00;5047467;28;20067;-57
2021/10/14 05:22:55;;;;;;;9.77;6.07;;;;;;;-0.77;100.00;96129.00;5043475;28;20072;-58
2021/10/14 05:25:20;;;;;;;12.43;5.85;;;;;;;-0.61;100.00;96129.78;5065355;28;20024;-57
2021/10/14 05:27:46;;;;;;;15.98;6.22;;;;;;;-0.47;100.00;96123.00;5065546;28;20480;-56
2021/10/14 05:30:14;;;;;;;21.40;6.38;;;;;;;-0.27;100.00;96120.78;5069635;28;20017;-58
2021/10/14 05:32:41;;;;;;;19.45;6.38;;;;;;;-0.09;100.00;96118.72;5067303;28;20024;-58
2021/10/14 05:35:07;;;;;;;19.30;6.22;;;;;;;0.05;100.00;96125.03;5028521;28;20024;-57
2021/10/14 05:37:32;;;;;;;19.20;6.13;;;;;;;0.13;100.00;96114.47;5052458;28;20020;-57
2021/10/14 05:39:58;;;;;;;18.98;6.35;;;;;;;0.17;100.00;96121.00;5047327;28;20056;-55
2021/10/14 05:42:23;;;;;;;8.85;6.28;;;;;;;0.20;100.00;96123.28;5046225;28;20029;-56
2021/10/14 05:44:48;;;;;;;17.77;5.72;;;;;;;0.23;100.00;96117.69;5050743;28;20081;-56
2021/10/14 05:47:14;;;;;;;16.60;6.93;;;;;;;0.26;100.00;96119.97;5056783;28;20049;-55
2021/10/14 05:49:39;;;;;;;12.93;6.20;;;;;;;0.28;100.00;96117.16;5073693;28;20032;-60
2021/10/14 05:52:07;;;;;;;12.70;6.07;;;;;;;0.31;100.00;96114.16;5052212;28;20399;-57
2021/10/14 05:54:32;;;;;;;9.60;6.20;;;;;;;0.29;100.00;96114.34;5073587;28;20032;-57
2021/10/14 05:56:58;;;;;;;10.82;6.65;;;;;;;0.27;100.00;96113.69;5052300;28;20029;-60
2021/10/14 05:59:24;;;;;;;8.57;5.72;;;;;;;0.22;100.00;96112.59;5073426;28;20021;-54
2021/10/14 06:01:50;;;;;;;10.00;6.40;;;;;;;0.17;100.00;96112.28;5052668;28;20039;-56
2021/10/14 06:04:15;;;;;;;9.48;6.40;;;;;;;0.14;100.00;96121.38;5068765;28;20133;-60
2021/10/14 06:06:40;;;;;;;8.10;5.93;;;;;;;0.16;100.00;96118.56;5066840;28;20479;-59
2021/10/14 06:09:06;;;;;;;8.15;6.10;;;;;;;0.21;100.00;96118.84;5073382;28;20078;-57
2021/10/14 06:11:31;;;;;;;9.43;6.47;;;;;;;0.24;100.00;96118.50;5072997;28;20028;-52
2021/10/14 06:13:56;;;;;;;8.45;6.30;;;;;;;0.23;100.00;96120.31;5071473;28;20042;-52
2021/10/14 06:16:22;;;;;;;11.50;5.88;;;;;;;0.21;100.00;96117.03;5070004;28;20025;-57
2021/10/14 06:18:47;;;;;;;8.05;5.47;;;;;;;0.23;100.00;96116.88;4992765;28;20041;-58
2021/10/14 06:21:12;;;;;;;8.43;6.10;;;;;;;0.24;100.00;96113.25;5037200;28;20056;-55
2021/10/14 06:23:38;;;;;;;9.90;5.90;;;;;;;0.26;100.00;96121.78;5052946;28;20068;-54
2021/10/14 06:26:03;;;;;;;8.20;5.25;;;;;;;0.27;100.00;96111.06;5052955;28;20036;-54
2021/10/14 06:28:29;;;;;;;19.35;5.57;;;;;;;0.34;100.00;96115.66;5006459;28;20044;-56
2021/10/14 06:30:54;;;;;;;17.95;5.38;;;;;;;0.38;100.00;96107.19;5015549;28;20017;-60
2021/10/14 06:33:20;;;;;;;24.77;6.10;;;;;;;0.45;100.00;96107.31;5061867;28;20387;-59
2021/10/14 06:35:45;;;;;;;15.60;5.68;;;;;;;0.51;100.00;96109.25;5054956;28;20383;-59
2021/10/14 06:38:11;;;;;;;11.50;5.97;;;;;;;0.58;100.00;96105.72;5071585;28;20059;-57
2021/10/14 06:40:36;;;;;;;13.45;6.32;;;;;;;0.66;100.00;96104.84;5054973;28;20498;-58
2021/10/14 06:43:02;;;;;;;10.13;5.95;;;;;;;0.69;100.00;96098.38;5072706;28;20020;-58
2021/10/14 06:45:27;;;;;;;9.60;5.90;;;;;;;0.70;100.00;96098.22;5038322;28;20031;-52
2021/10/14 06:47:55;;;;;;;12.13;7.10;;;;;;;0.73;100.00;96100.47;5071542;28;20020;-54
2021/10/14 06:50:26;;;;;;;9.23;6.90;;;;;;;0.75;100.00;96093.19;5054507;28;20027;-54
2021/10/14 06:52:55;;;;;;;8.77;5.80;;;;;;;0.76;100.00;96107.19;5072709;28;20017;-56
2021/10/14 06:55:20;;;;;;;10.55;6.72;;;;;;;0.79;100.00;96104.22;5071544;28;20119;-52
2021/10/14 06:57:45;;;;;;;12.95;6.80;;;;;;;0.87;100.00;96106.81;5060746;28;20456;-53
2021/10/14 07:00:14;;;;;;;10.35;7.20;;;;;;;0.97;100.00;96102.06;5052678;28;20103;-52
2021/10/14 07:02:42;;;;;;;14.27;6.70;;;;;;;1.05;100.00;96101.97;5033901;28;20082;-56
2021/10/14 07:05:08;;;;;;;10.32;6.20;;;;;;;1.08;100.00;96098.97;5031051;28;20071;-57
2021/10/14 07:08:02;;;;;;;10.73;6.32;;;;;;;1.07;100.00;96102.63;5048101;28;20547;-53
2021/10/14 07:10:33;;;;;;;9.20;6.28;;;;;;;1.12;100.00;96099.44;5052325;28;20033;-53
2021/10/14 07:13:05;;;;;;;8.55;5.90;;;;;;;1.17;100.00;96097.88;5034334;28;20029;-55
2021/10/14 07:15:30;;;;;;;7.97;5.97;;;;;;;1.32;100.00;96100.56;5052229;28;20070;-55
2021/10/14 07:17:55;;;;;;;8.88;6.38;;;;;;;1.48;100.00;96106.63;5052334;28;20029;-53
2021/10/14 07:20:21;;;;;;;10.05;6.53;;;;;;;1.62;100.00;96111.91;5030972;28;20435;-54
2021/10/14 07:22:46;;;;;;;9.38;6.30;;;;;;;1.73;100.00;96106.13;5030896;28;20505;-52
2021/10/14 07:25:20;;;;;;;9.77;7.13;;;;;;;1.83;100.00;96108.50;5051518;28;20037;-53
2021/10/14 07:27:45;;;;;;;12.30;7.97;;;;;;;1.97;100.00;96091.81;5052005;28;20053;-54
2021/10/14 07:30:11;;;;;;;14.73;7.97;;;;;;;2.18;100.00;96092.84;5031434;28;20064;-57
2021/10/14 07:32:43;;;;;;;11.65;8.20;;;;;;;2.46;100.00;96092.91;5045936;28;20032;-58
2021/10/14 07:35:20;;;;;;;14.85;10.15;;;;;;;2.83;100.00;96082.03;5052011;28;20102;-56
2021/10/14 07:37:54;;;;;;;18.10;11.65;;;;;;;3.17;100.00;96080.44;5052357;28;20422;-52
2021/10/14 07:40:26;;;;;;;20.02;12.40;;;;;;;3.34;100.00;96073.81;5051881;28;20047;-54
2021/10/14 07:42:52;;;;;;;18.88;12.07;;;;;;;3.27;100.00;96078.25;5052213;28;20025;-54
2021/10/14 07:45:26;;;;;;;16.33;10.90;;;;;;;3.22;100.00;96080.66;5052144;28;20031;-57
2021/10/14 07:47:52;;;;;;;14.90;9.70;;;;;;;3.27;100.00;96086.22;5052076;28;20051;-59
2021/10/14 07:50:23;;;;;;;13.93;9.23;;;;;;;3.36;100.00;96079.72;5051951;28;20021;-59
2021/10/14 07:53:01;;;;;;;13.50;8.82;;;;;;;3.72;100.00;96079.50;5051713;28;20028;-59
2021/10/14 07:55:29;;;;;;;13.30;9.10;;;;;;;3.88;100.00;96080.16;5051864;28;20548;-58
2021/10/14 07:58:01;;;;;;;13.52;8.68;;;;;;;3.85;100.00;96076.09;5051889;28;20029;-59
2021/10/14 08:00:26;;;;;;;13.18;8.90;;;;;;;4.06;100.00;96086.56;5030661;28;20033;-60
2021/10/14 08:02:57;;;;;;;15.40;9.68;;;;;;;4.45;100.00;96078.88;5045386;28;20035;-58
2021/10/14 08:05:24;;;;;;;14.05;9.88;;;;;;;4.60;100.00;96083.00;5055978;28;20396;-59
2021/10/14 08:07:50;;;;;;;15.30;10.07;;;;;;;4.82;100.00;96086.28;5049567;28;20411;-60
2021/10/14 08:10:15;;;;;;;11.63;7.80;;;;;;;4.89;100.00;96084.44;5028888;28;20029;-62
2021/10/14 08:12:42;;;;;;;10.75;6.63;;;;;;;5.01;100.00;96089.13;5047739;28;20025;-58
2021/10/14 08:15:08;;;;;;;10.90;6.20;;;;;;;5.17;100.00;96089.50;5051067;28;20024;-60
2021/10/14 08:17:34;;;;;;;8.32;6.15;;;;;;;5.41;100.00;96098.66;5033161;28;20047;-60
2021/10/14 08:20:01;;;;;;;9.05;5.55;;;;;;;5.68;100.00;96088.78;5050705;28;20492;-59
2021/10/14 08:22:27;;;;;;;7.07;5.25;;;;;;;6.06;100.00;96096.03;5050309;28;20049;-57
2021/10/14 08:24:53;;;;;;;7.25;5.05;;;;;;;6.34;100.00;96088.53;5049794;28;20226;-59
2021/10/14 08:27:18;;;;;;;8.20;5.82;;;;;;;6.68;100.00;96086.47;5050874;28;20055;-60
2021/10/14 08:29:44;;;;;;;5.63;4.50;;;;;;;6.89;100.00;96087.97;5050888;28;20104;-53
2021/10/14 08:32:10;;;;;;;6.55;4.80;;;;;;;-144.43;100.00;64487.81;5029159;28;20056;-56
2021/10/14 08:34:35;;;;;;;6.40;4.30;;;;;;;-144.43;100.00;64487.81;5042517;28;20090;-56
2021/10/14 08:37:01;;;;;;;8.50;5.00;;;;;;;-144.43;100.00;64487.81;5016643;28;20040;-58
2021/10/14 08:39:26;;;;;;;6.65;4.40;;;;;;;-144.43;100.00;64487.81;5034005;28;20143;-60
2021/10/14 08:41:51;;;;;;;5.80;4.82;;;;;;;-144.43;100.00;64487.81;5053510;28;20041;-60
2021/10/14 08:44:31;;;;;;;6.07;4.22;;;;;;;-144.43;100.00;64487.81;5033510;28;20136;-59
2021/10/14 08:46:59;;;;;;;5.63;4.40;;;;;;;-144.43;100.00;64487.81;5041117;28;20029;-57
2021/10/14 08:49:25;;;;;;;8.02;5.38;;;;;;;-144.43;100.00;64487.81;5036182;28;20033;-58
2021/10/14 08:51:51;;;;;;;6.18;4.95;;;;;;;-144.43;100.00;64487.81;5060854;28;20060;-59
2021/10/14 08:54:16;;;;;;;7.72;5.30;;;;;;;-144.43;100.00;64487.81;5056010;28;20543;-57
2021/10/14 08:56:43;;;;;;;6.65;4.95;;;;;;;-144.43;100.00;64487.81;5074079;28;20033;-60
2021/10/14 08:59:09;;;;;;;6.68;4.95;;;;;;;-144.43;100.00;64487.81;5039342;28;20020;-60
2021/10/14 09:01:34;;;;;;;7.38;5.53;;;;;;;-144.43;100.00;64487.81;5054701;28;20017;-58
2021/10/14 09:04:10;;;;;;;6.95;5.25;;;;;;;-144.43;100.00;64487.81;5043584;28;20082;-59
2021/10/14 09:06:38;;;;;;;7.10;5.57;;;;;;;-144.43;100.00;64487.81;5016192;28;20026;-59
2021/10/14 09:09:03;;;;;;;6.85;5.47;;;;;;;-144.43;100.00;64487.81;5029784;28;20033;-59
2021/10/14 09:11:29;;;;;;;6.55;5.00;;;;;;;-144.43;100.00;64487.81;5050835;28;20021;-59
2021/10/14 09:13:58;;;;;;;7.82;5.20;;;;;;;-144.43;100.00;64487.81;5064408;28;20475;-58
2021/10/14 09:16:34;;;;;;;6.95;5.00;;;;;;;-144.43;100.00;64487.81;5068823;28;20416;-58
2021/10/14 09:19:13;;;;;;;5.60;4.80;;;;;;;-144.43;100.00;64487.81;5045388;28;20056;-60
2021/10/14 09:21:40;;;;;;;6.57;5.00;;;;;;;-144.43;100.00;64487.81;5040794;28;20041;-60
2021/10/14 09:24:30;;;;;;;6.45;4.47;;;;;;;-144.43;100.00;64487.81;5035490;28;20427;-60
2021/10/14 09:26:57;;;;;;;6.55;4.75;;;;;;;-144.43;100.00;64487.81;5041789;28;20438;-55
2021/10/14 09:29:25;;;;;;;6.70;4.75;;;;;;;-144.43;100.00;64487.81;5053456;28;20362;-62
2021/10/14 09:32:18;;;;;;;5.78;4.78;;;;;;;-144.43;100.00;64487.81;5052680;28;20112;-60
2021/10/14 09:34:50;;;;;;;7.30;5.07;;;;;;;-144.43;100.00;64487.81;5032137;28;20032;-60
2021/10/14 09:37:18;;;;;;;6.93;4.95;;;;;;;-144.43;100.00;64487.81;5050422;28;20271;-59
2021/10/14 09:39:56;;;;;;;7.47;5.50;;;;;;;-144.43;100.00;64487.81;5055238;28;20037;-62
2021/10/14 09:42:58;;;;;;;6.68;5.18;;;;;;;-144.43;100.00;64487.81;5072559;28;20487;-59
2021/10/14 09:45:30;;;;;;;7.15;5.13;;;;;;;-144.43;100.00;64487.81;5057087;28;20028;-60
2021/10/14 09:48:04;;;;;;;11.88;5.80;;;;;;;-144.43;100.00;64487.81;5073126;28;20016;-58
2021/10/14 09:50:39;;;;;;;7.97;5.68;;;;;;;-144.43;100.00;64487.81;5053797;28;20066;-62
2021/10/14 09:53:07;;;;;;;9.48;5.40;;;;;;;-144.43;100.00;64487.81;5054909;28;20064;-58
2021/10/14 09:55:32;;;;;;;9.38;5.47;;;;;;;-144.43;100.00;64487.81;5035795;28;20020;-57
2021/10/14 09:57:59;;;;;;;8.13;5.78;;;;;;;-144.43;100.00;64487.81;5018884;28;20021;-59
2021/10/14 10:00:26;;;;;;;8.00;5.97;;;;;;;-144.43;100.00;64487.81;5018449;28;20025;-58
2021/10/14 10:02:52;;;;;;;7.70;5.95;;;;;;;-144.43;100.00;64487.81;5035146;28;20472;-59
2021/10/14 10:05:18;;;;;;;8.38;6.35;;;;;;;-144.43;100.00;64487.81;5052699;28;20060;-60
2021/10/14 10:07:46;;;;;;;8.02;5.30;;;;;;;-144.43;100.00;64487.81;5034812;28;20028;-62
2021/10/14 10:10:15;;;;;;;7.35;5.78;;;;;;;-144.43;100.00;64487.81;5034273;28;20407;-59
2021/10/14 10:12:40;;;;;;;9.40;5.22;;;;;;;-144.43;100.00;64487.81;5034700;28;20499;-60
2021/10/14 10:15:06;;;;;;;7.03;5.25;;;;;;;-144.43;100.00;64487.81;5034777;28;20037;-57
2021/10/14 10:17:42;;;;;;;7.80;6.05;;;;;;;-144.43;100.00;64487.81;5070977;28;20078;-60
2021/10/14 10:20:37;;;;;;;7.13;5.53;;;;;;;-144.43;100.00;64487.81;5072090;28;20472;-62
2021/10/14 10:23:02;;;;;;;6.93;5.35;;;;;;;-144.43;100.00;64487.81;5071085;28;20045;-60
2021/10/14 10:25:30;;;;;;;6.75;5.15;;;;;;;-144.43;100.00;64487.81;5069115;28;20483;-58
2021/10/14 10:28:01;;;;;;;7.53;5.60;;;;;;;-144.43;100.00;64487.81;5052329;28;20035;-59
2021/10/14 10:30:35;;;;;;;6.88;5.53;;;;;;;-144.43;100.00;64487.81;5034727;28;20021;-57
2021/10/14 10:33:01;;;;;;;7.10;4.90;;;;;;;-144.43;100.00;64487.81;5062767;28;20028;-58
2021/10/14 10:35:49;;;;;;;7.53;5.00;;;;;;;-144.43;100.00;64487.81;5072004;28;20034;-59
2021/10/14 10:38:17;;;;;;;8.05;5.50;;;;;;;-144.43;100.00;64487.81;5072038;28;20033;-59
2021/10/14 10:40:47;;;;;;;7.93;6.00;;;;;;;-144.43;100.00;64487.81;5037010;28;20024;-61
2021/10/14 10:43:16;;;;;;;10.00;6.60;;;;;;;-144.43;100.00;64487.81;5069906;28;20395;-61
2021/10/14 10:45:43;;;;;;;10.25;6.38;;;;;;;-144.43;100.00;64487.81;5034079;28;20407;-60
2021/10/14 10:48:09;;;;;;;8.77;6.25;;;;;;;-144.43;100.00;64487.81;5051944;28;20067;-57
2021/10/14 10:50:40;;;;;;;8.73;7.18;;;;;;;-144.43;100.00;64487.81;5023633;28;20112;-59
2021/10/14 10:53:36;;;;;;;8.80;6.03;;;;;;;-144.43;100.00;64487.81;5051574;28;20033;-59
2021/10/14 10:56:02;;;;;;;6.78;5.28;;;;;;;-144.43;100.00;64487.81;5030003;28;20060;-60
2021/10/14 10:58:30;;;;;;;7.57;5.63;;;;;;;-144.43;100.00;64487.81;5014214;28;20037;-60
2021/10/14 11:00:56;;;;;;;7.07;5.30;;;;;;;-144.43;100.00;64487.81;5045869;28;20373;-59
2021/10/14 11:03:23;;;;;;;7.63;5.78;;;;;;;-144.43;100.00;64487.81;5051454;28;20083;-58
2021/10/14 11:05:55;;;;;;;7.13;5.25;;;;;;;-144.43;100.00;64487.81;5032826;28;20092;-57
2021/10/14 11:08:22;;;;;;;7.30;5.57;;;;;;;-144.43;100.00;64487.81;5050602;28;20060;-59
2021/10/14 11:11:21;;;;;;;9.63;5.28;;;;;;;-144.43;100.00;64487.81;5017230;28;20547;-56
2021/10/14 11:13:49;;;;;;;7.10;5.43;;;;;;;-144.43;100.00;64487.81;5038780;28;20047;-62
2021/10/14 11:16:16;;;;;;;6.00;4.70;;;;;;;-144.43;100.00;64487.81;5053889;28;20037;-56
2021/10/14 11:18:48;;;;;;;7.05;4.93;;;;;;;-144.43;100.00;64487.81;5037170;28;20491;-59
2021/10/14 11:21:16;;;;;;;6.47;4.65;;;;;;;-144.43;100.00;64487.81;5053192;28;20052;-59
2021/10/14 11:23:46;;;;;;;7.55;5.25;;;;;;;-144.43;100.00;64487.81;5071600;28;20034;-57
2021/10/14 11:26:15;;;;;;;8.52;5.47;;;;;;;-144.43;100.00;64487.81;5071686;28;20059;-59